createdAt,value
2017-08-01T00:02:09.986Z,3.37
2017-08-01T00:04:36.786Z,13.00
2017-08-01T00:07:02.955Z,3.17
2017-08-01T00:09:29.791Z,3.07
2017-08-01T00:11:56.630Z,3.43
2017-08-01T00:14:22.693Z,4.57
2017-08-01T00:16:48.781Z,4.83
2017-08-01T00:19:15.033Z,5.13
2017-08-01T00:21:41.274Z,6.30
2017-08-01T00:24:07.527Z,6.30
2017-08-01T00:26:33.835Z,3.13
2017-08-01T00:28:59.899Z,3.23
2017-08-01T00:31:26.082Z,5.90
2017-08-01T00:33:52.369Z,4.50
2017-08-01T00:36:18.527Z,8.07
2017-08-01T00:38:44.631Z,11.33
2017-08-01T00:41:11.446Z,4.03
2017-08-01T00:43:37.519Z,10.23
2017-08-01T00:46:03.604Z,5.30
2017-08-01T00:48:29.666Z,4.83
2017-08-01T00:50:55.738Z,7.77
2017-08-01T00:53:21.828Z,4.30
2017-08-01T00:55:47.910Z,5.70
2017-08-01T00:58:13.989Z,4.60
2017-08-01T01:00:40.215Z,6.13
2017-08-01T01:03:06.348Z,3.70
2017-08-01T01:05:32.461Z,4.50
2017-08-01T01:07:58.523Z,8.00
2017-08-01T01:10:24.730Z,7.00
2017-08-01T01:15:26.686Z,10.30
2017-08-01T01:17:52.750Z,6.40
2017-08-01T01:20:18.939Z,5.33
2017-08-01T01:22:45.077Z,4.13
2017-08-01T01:25:11.192Z,8.50
2017-08-01T01:27:37.318Z,5.10
2017-08-01T01:30:03.378Z,6.53
2017-08-01T01:32:29.467Z,3.67
2017-08-01T01:34:55.551Z,9.50
2017-08-01T01:37:21.618Z,4.40
2017-08-01T01:39:47.743Z,11.10
2017-08-01T01:42:13.850Z,7.80
2017-08-01T01:44:39.960Z,3.77
2017-08-01T01:47:06.021Z,11.30
2017-08-01T01:49:32.129Z,6.60
2017-08-01T01:51:58.210Z,7.00
2017-08-01T01:54:24.295Z,7.73
2017-08-01T01:56:50.363Z,3.77
2017-08-01T01:59:16.442Z,5.77
2017-08-01T02:01:42.571Z,4.37
2017-08-01T02:04:08.656Z,4.87
2017-08-01T02:06:35.511Z,5.23
2017-08-01T02:09:02.519Z,5.20
2017-08-01T02:11:28.738Z,7.37
2017-08-01T02:13:54.962Z,8.00
2017-08-01T02:16:21.170Z,4.23
2017-08-01T02:18:47.367Z,5.10
2017-08-01T02:21:13.526Z,4.47
2017-08-01T02:23:40.011Z,5.40
2017-08-01T02:26:06.103Z,4.90
2017-08-01T02:28:32.175Z,6.93
2017-08-01T02:30:58.246Z,3.97
2017-08-01T02:33:24.465Z,3.83
2017-08-01T02:35:50.722Z,4.47
2017-08-01T02:38:16.907Z,5.20
2017-08-01T02:40:42.970Z,5.07
2017-08-01T02:43:09.064Z,4.40
2017-08-01T02:45:35.330Z,6.93
2017-08-01T02:48:01.814Z,6.23
2017-08-01T02:50:28.074Z,7.07
2017-08-01T02:52:54.265Z,6.43
2017-08-01T02:55:20.326Z,5.57
2017-08-01T02:57:46.439Z,6.50
2017-08-01T03:00:12.557Z,3.43
2017-08-01T03:02:38.807Z,6.67
2017-08-01T03:05:04.878Z,6.30
2017-08-01T03:07:31.158Z,4.23
2017-08-01T03:09:57.220Z,5.33
2017-08-01T03:12:24.050Z,5.87
2017-08-01T03:14:50.217Z,7.20
2017-08-01T03:17:16.381Z,3.70
2017-08-01T03:19:42.570Z,5.13
2017-08-01T03:22:08.656Z,4.63
2017-08-01T03:24:34.823Z,5.03
2017-08-01T03:27:01.076Z,4.53
2017-08-01T03:29:27.299Z,5.67
2017-08-01T03:31:53.366Z,3.30
2017-08-01T03:34:19.440Z,6.53
2017-08-01T03:36:45.514Z,8.23
2017-08-01T03:39:11.582Z,5.10
2017-08-01T03:41:37.654Z,5.63
2017-08-01T03:44:03.718Z,5.30
2017-08-01T03:46:29.766Z,5.57
2017-08-01T03:48:55.854Z,4.93
2017-08-01T03:51:21.918Z,5.03
2017-08-01T03:53:47.986Z,3.80
2017-08-01T03:56:14.150Z,8.83
2017-08-01T03:58:40.218Z,3.20
2017-08-01T04:01:06.270Z,4.13
2017-08-01T04:03:33.098Z,7.20
2017-08-01T04:05:59.182Z,11.20
2017-08-01T04:08:34.637Z,5.23
2017-08-01T04:11:00.704Z,5.10
2017-08-01T04:13:26.778Z,4.93
2017-08-01T04:15:52.898Z,5.13
2017-08-01T04:18:19.138Z,14.97
2017-08-01T04:20:45.335Z,6.20
2017-08-01T04:23:11.630Z,7.73
2017-08-01T04:25:37.690Z,2.60
2017-08-01T04:28:03.979Z,3.93
2017-08-01T04:30:30.150Z,4.70
2017-08-01T04:32:56.243Z,5.80
2017-08-01T04:35:22.297Z,6.00
2017-08-01T04:37:48.442Z,6.20
2017-08-01T04:40:14.532Z,4.00
2017-08-01T04:42:40.602Z,3.13
2017-08-01T04:45:06.678Z,5.47
2017-08-01T04:47:32.822Z,7.27
2017-08-01T04:49:58.973Z,3.67
2017-08-01T04:52:25.149Z,4.60
2017-08-01T04:54:51.326Z,4.47
2017-08-01T04:57:17.554Z,6.50
2017-08-01T04:59:43.786Z,3.70
2017-08-01T05:02:10.003Z,5.93
2017-08-01T05:04:36.251Z,4.57
2017-08-01T05:07:02.343Z,6.53
2017-08-01T05:09:28.460Z,6.30
2017-08-01T05:11:54.654Z,5.33
2017-08-01T05:14:20.822Z,7.03
2017-08-01T05:16:47.007Z,5.33
2017-08-01T05:19:13.085Z,6.63
2017-08-01T05:21:39.194Z,7.60
2017-08-01T05:24:05.430Z,5.60
2017-08-01T05:26:31.494Z,5.77
2017-08-01T05:28:57.550Z,3.57
2017-08-01T05:31:23.631Z,8.47
2017-08-01T05:33:49.822Z,3.90
2017-08-01T05:36:16.707Z,4.57
2017-08-01T05:41:45.200Z,3.47
2017-08-01T05:44:11.266Z,4.17
2017-08-01T05:46:37.455Z,5.50
2017-08-01T05:49:03.519Z,6.03
2017-08-01T05:51:29.583Z,11.30
2017-08-01T05:53:55.670Z,3.93
2017-08-01T05:56:21.752Z,3.87
2017-08-01T05:58:47.954Z,5.97
2017-08-01T06:01:14.110Z,4.70
2017-08-01T06:03:40.173Z,4.77
2017-08-01T06:06:06.351Z,4.87
2017-08-01T06:08:32.424Z,5.20
2017-08-01T06:10:58.509Z,4.90
2017-08-01T06:13:24.698Z,7.73
2017-08-01T06:15:51.523Z,5.47
2017-08-01T06:18:17.598Z,4.00
2017-08-01T06:20:43.707Z,5.03
2017-08-01T06:23:09.837Z,9.40
2017-08-01T06:25:35.896Z,8.10
2017-08-01T06:28:01.966Z,11.10
2017-08-01T06:30:28.034Z,7.87
2017-08-01T06:32:54.111Z,3.60
2017-08-01T06:35:20.160Z,6.60
2017-08-01T06:37:46.237Z,5.57
2017-08-01T06:40:12.312Z,6.40
2017-08-01T06:42:38.366Z,4.70
2017-08-01T06:45:04.475Z,4.93
2017-08-01T06:47:30.552Z,7.90
2017-08-01T06:49:56.718Z,5.40
2017-08-01T06:52:22.846Z,6.47
2017-08-01T06:54:48.923Z,3.97
2017-08-01T06:57:15.083Z,3.87
2017-08-01T06:59:41.242Z,3.83
2017-08-01T07:02:07.409Z,4.00
2017-08-01T07:04:34.703Z,4.43
2017-08-01T07:07:00.782Z,3.43
2017-08-01T07:09:27.600Z,5.20
2017-08-01T07:11:53.783Z,3.70
2017-08-01T07:14:19.930Z,6.27
2017-08-01T07:16:46.025Z,6.37
2017-08-01T07:19:12.190Z,4.50
2017-08-01T07:21:38.274Z,4.93
2017-08-01T07:24:04.739Z,4.20
2017-08-01T07:26:30.844Z,3.63
2017-08-01T07:28:56.918Z,7.27
2017-08-01T07:31:22.974Z,4.00
2017-08-01T07:33:49.050Z,3.90
2017-08-01T07:36:15.145Z,8.03
2017-08-01T07:38:41.343Z,7.87
2017-08-01T07:41:07.482Z,6.60
2017-08-01T07:43:33.661Z,4.73
2017-08-01T07:45:59.730Z,3.93
2017-08-01T07:48:26.597Z,4.30
2017-08-01T07:50:52.725Z,5.43
2017-08-01T07:53:18.837Z,3.73
2017-08-01T07:55:44.975Z,4.60
2017-08-01T07:58:11.027Z,12.07
2017-08-01T08:00:37.129Z,7.07
2017-08-01T08:03:03.241Z,4.17
2017-08-01T08:05:29.369Z,4.67
2017-08-01T08:07:55.446Z,4.97
2017-08-01T08:10:21.649Z,3.73
2017-08-01T08:12:47.726Z,3.67
2017-08-01T08:15:14.604Z,4.63
2017-08-01T08:17:40.729Z,5.80
2017-08-01T08:20:06.875Z,8.70
2017-08-01T08:22:33.051Z,5.07
2017-08-01T08:24:59.202Z,4.37
2017-08-01T08:27:25.306Z,6.20
2017-08-01T08:29:51.454Z,5.10
2017-08-01T08:32:17.595Z,5.60
2017-08-01T08:34:43.687Z,5.23
2017-08-01T08:37:09.899Z,4.63
2017-08-01T08:39:35.974Z,7.83
2017-08-01T08:42:02.050Z,7.87
2017-08-01T08:44:28.198Z,8.60
2017-08-01T08:46:54.272Z,5.50
2017-08-01T08:49:21.161Z,9.70
2017-08-01T08:51:47.313Z,6.00
2017-08-01T08:54:13.438Z,6.20
2017-08-01T08:56:39.534Z,5.07
2017-08-01T08:59:05.657Z,7.40
2017-08-01T09:01:31.833Z,7.23
2017-08-01T09:03:57.898Z,6.90
2017-08-01T09:06:24.070Z,4.67
2017-08-01T09:08:50.117Z,3.83
2017-08-01T09:11:16.201Z,4.17
2017-08-01T09:13:42.352Z,5.70
2017-08-01T09:16:08.464Z,6.50
2017-08-01T09:18:34.641Z,7.43
2017-08-01T09:21:00.712Z,7.67
2017-08-01T09:23:26.825Z,6.50
2017-08-01T09:25:52.999Z,4.03
2017-08-01T09:28:19.171Z,6.20
2017-08-01T09:30:45.230Z,4.50
2017-08-01T09:33:11.303Z,7.27
2017-08-01T09:35:37.478Z,5.47
2017-08-01T09:38:03.635Z,4.07
2017-08-01T09:40:29.726Z,3.60
2017-08-01T09:42:55.915Z,4.50
2017-08-01T09:45:22.066Z,5.87
2017-08-01T09:47:48.202Z,7.00
2017-08-01T09:50:14.314Z,7.00
2017-08-01T09:52:40.454Z,4.77
2017-08-01T09:55:06.549Z,6.33
2017-08-01T09:57:32.713Z,5.47
2017-08-01T09:59:58.781Z,6.50
2017-08-01T10:02:25.603Z,4.80
2017-08-01T10:04:51.705Z,4.43
2017-08-01T10:07:17.786Z,5.20
2017-08-01T10:09:44.650Z,4.30
2017-08-01T10:12:10.810Z,5.43
2017-08-01T10:14:36.913Z,7.47
2017-08-01T10:17:03.054Z,5.23
2017-08-01T10:19:29.139Z,6.13
2017-08-01T10:21:55.218Z,7.77
2017-08-01T10:24:21.294Z,4.53
2017-08-01T10:26:47.440Z,6.13
2017-08-01T10:29:13.851Z,4.67
2017-08-01T10:31:39.995Z,5.93
2017-08-01T10:34:06.144Z,5.53
2017-08-01T10:36:32.230Z,10.07
2017-08-01T10:38:58.370Z,4.77
2017-08-01T10:41:24.423Z,5.83
2017-08-01T10:43:50.521Z,5.77
2017-08-01T10:46:16.623Z,4.53
2017-08-01T10:48:43.479Z,5.00
2017-08-01T10:51:09.547Z,4.00
2017-08-01T10:53:35.734Z,3.93
2017-08-01T10:56:01.863Z,10.23
2017-08-01T10:58:27.926Z,6.27
2017-08-01T11:00:53.982Z,5.63
2017-08-01T11:03:20.141Z,3.13
2017-08-01T11:05:46.206Z,4.00
2017-08-01T11:08:12.275Z,4.67
2017-08-01T11:10:38.346Z,3.43
2017-08-01T11:13:04.819Z,4.17
2017-08-01T11:15:30.878Z,4.40
2017-08-01T11:17:56.923Z,4.80
2017-08-01T11:20:23.022Z,4.43
2017-08-01T11:22:51.183Z,5.70
2017-08-01T11:25:17.306Z,3.97
2017-08-01T11:27:45.053Z,4.97
2017-08-01T11:30:11.537Z,4.13
2017-08-01T11:32:37.599Z,4.10
2017-08-01T11:35:03.656Z,3.43
2017-08-01T11:37:29.895Z,3.30
2017-08-01T11:39:55.936Z,9.00
2017-08-01T11:42:29.227Z,6.40
2017-08-01T11:44:55.442Z,4.13
2017-08-01T11:47:21.507Z,4.07
2017-08-01T11:49:47.727Z,4.30
2017-08-01T11:52:13.791Z,5.97
2017-08-01T11:54:39.865Z,3.23
2017-08-01T11:57:06.254Z,3.37
2017-08-01T11:59:32.386Z,3.33
2017-08-01T12:01:58.461Z,3.60
2017-08-01T12:04:24.674Z,4.40
2017-08-01T12:06:51.082Z,2.60
2017-08-01T12:09:17.138Z,3.20
2017-08-01T12:11:43.498Z,7.27
2017-08-01T12:14:10.306Z,5.10
2017-08-01T12:16:36.373Z,3.20
2017-08-01T12:19:03.394Z,7.13
2017-08-01T12:21:29.458Z,2.97
2017-08-01T12:23:55.606Z,2.40
2017-08-01T12:26:21.843Z,2.83
2017-08-01T12:28:47.954Z,3.27
2017-08-01T12:31:14.019Z,2.43
2017-08-01T12:33:40.106Z,5.70
2017-08-01T12:36:06.204Z,3.13
2017-08-01T12:38:33.063Z,4.27
2017-08-01T12:41:00.245Z,5.33
2017-08-01T12:43:26.326Z,5.03
2017-08-01T12:45:52.427Z,4.37
2017-08-01T12:48:18.515Z,2.73
2017-08-01T12:50:44.585Z,3.60
2017-08-01T12:53:11.513Z,9.30
2017-08-01T12:55:37.703Z,4.60
2017-08-01T12:58:03.841Z,3.00
2017-08-01T13:00:29.915Z,5.90
2017-08-01T13:02:56.794Z,3.97
2017-08-01T13:05:22.914Z,4.73
2017-08-01T13:07:49.165Z,5.13
2017-08-01T13:10:15.455Z,5.00
2017-08-01T13:12:41.611Z,6.00
2017-08-01T13:15:07.676Z,3.37
2017-08-01T13:17:33.808Z,4.27
2017-08-01T13:20:00.703Z,5.67
2017-08-01T13:22:26.808Z,5.40
2017-08-01T13:24:52.993Z,2.93
2017-08-01T13:27:19.041Z,3.50
2017-08-01T13:29:45.212Z,4.43
2017-08-01T13:32:11.335Z,11.40
2017-08-01T13:34:37.424Z,4.57
2017-08-01T13:37:03.569Z,2.80
2017-08-01T13:39:29.701Z,2.70
2017-08-01T13:41:56.317Z,5.63
2017-08-01T13:44:22.379Z,3.87
2017-08-01T13:46:48.486Z,7.10
2017-08-01T13:49:14.618Z,3.97
2017-08-01T13:51:40.722Z,3.13
2017-08-01T13:54:06.826Z,3.87
2017-08-01T13:56:32.894Z,4.37
2017-08-01T13:58:59.106Z,4.00
2017-08-01T14:01:25.190Z,4.87
2017-08-01T14:03:51.350Z,3.10
2017-08-01T14:06:17.530Z,3.43
2017-08-01T14:08:43.620Z,3.40
2017-08-01T14:11:09.766Z,5.07
2017-08-01T14:13:35.873Z,4.20
2017-08-01T14:16:01.970Z,7.40
2017-08-01T14:18:28.374Z,5.60
2017-08-01T14:20:54.554Z,5.30
2017-08-01T14:23:20.667Z,3.63
2017-08-01T14:25:46.807Z,4.80
2017-08-01T14:28:12.931Z,4.23
2017-08-01T14:30:39.794Z,3.20
2017-08-01T14:33:06.017Z,4.10
2017-08-01T14:35:32.142Z,11.83
2017-08-01T14:37:58.262Z,2.83
2017-08-01T14:40:24.362Z,13.63
2017-08-01T14:42:50.514Z,2.70
2017-08-01T14:45:16.619Z,3.47
2017-08-01T14:47:42.690Z,4.10
2017-08-01T14:50:08.762Z,3.40
2017-08-01T14:52:34.906Z,2.90
2017-08-01T14:55:00.981Z,3.03
2017-08-01T14:57:27.157Z,3.00
2017-08-01T14:59:53.290Z,5.43
2017-08-01T15:02:19.368Z,8.47
2017-08-01T15:04:46.161Z,3.73
2017-08-01T15:07:12.249Z,4.50
2017-08-01T15:09:39.104Z,2.93
2017-08-01T15:12:05.251Z,5.57
2017-08-01T15:14:31.359Z,4.40
2017-08-01T15:16:57.489Z,4.83
2017-08-01T15:19:23.550Z,4.40
2017-08-01T15:21:49.663Z,5.03
2017-08-01T15:24:15.767Z,2.70
2017-08-01T15:26:41.887Z,2.80
2017-08-01T15:29:07.959Z,4.43
2017-08-01T15:31:34.029Z,2.93
2017-08-01T15:34:00.174Z,6.70
2017-08-01T15:36:26.319Z,6.17
2017-08-01T15:38:52.498Z,6.10
2017-08-01T15:41:18.676Z,4.07
2017-08-01T15:43:44.827Z,3.67
2017-08-01T15:46:11.010Z,5.20
2017-08-01T15:48:37.116Z,10.30
2017-08-01T15:51:03.180Z,4.70
2017-08-01T15:53:29.283Z,6.73
2017-08-01T15:55:55.395Z,8.77
2017-08-01T15:58:21.519Z,7.10
2017-08-01T16:00:47.666Z,5.60
2017-08-01T16:03:13.799Z,7.27
2017-08-01T16:05:39.947Z,9.70
2017-08-01T16:08:06.127Z,9.73
2017-08-01T16:10:32.366Z,7.73
2017-08-01T16:12:59.235Z,13.10
2017-08-01T16:15:25.338Z,8.63
2017-08-01T16:17:51.405Z,6.90
2017-08-01T16:20:17.490Z,6.20
2017-08-01T16:22:43.552Z,5.20
2017-08-01T16:25:09.626Z,6.33
2017-08-01T16:27:35.690Z,10.13
2017-08-01T16:30:01.812Z,7.43
2017-08-01T16:32:27.881Z,6.43
2017-08-01T16:34:54.248Z,7.50
2017-08-01T16:37:20.323Z,8.50
2017-08-01T16:39:47.146Z,8.50
2017-08-01T16:42:14.139Z,7.10
2017-08-01T16:44:40.277Z,7.60
2017-08-01T16:47:06.350Z,10.37
2017-08-01T16:49:32.506Z,9.50
2017-08-01T16:51:58.568Z,8.37
2017-08-01T16:54:24.651Z,8.67
2017-08-01T16:56:50.726Z,7.00
2017-08-01T16:59:16.791Z,8.60
2017-08-01T17:01:42.868Z,10.23
2017-08-01T17:04:08.931Z,15.27
2017-08-01T17:06:35.031Z,7.60
2017-08-01T17:09:01.098Z,12.13
2017-08-01T17:11:27.182Z,9.07
2017-08-01T17:13:53.283Z,13.53
2017-08-01T17:16:19.386Z,11.50
2017-08-01T17:18:45.446Z,9.40
2017-08-01T17:21:11.529Z,12.07
2017-08-01T17:23:37.596Z,10.20
2017-08-01T17:26:03.845Z,11.17
2017-08-01T17:28:29.923Z,14.57
2017-08-01T17:30:56.183Z,13.20
2017-08-01T17:33:22.239Z,13.50
2017-08-01T17:35:48.307Z,10.97
2017-08-01T17:38:14.376Z,10.97
2017-08-01T17:40:40.474Z,10.10
2017-08-01T17:43:06.759Z,15.03
2017-08-01T17:45:32.864Z,10.90
2017-08-01T17:47:59.680Z,11.93
2017-08-01T17:50:25.750Z,11.47
2017-08-01T17:52:51.839Z,10.87
2017-08-01T17:55:17.964Z,11.13
2017-08-01T17:57:44.111Z,10.90
2017-08-01T18:00:10.969Z,10.00
2017-08-01T18:02:37.054Z,10.77
2017-08-01T18:05:03.164Z,8.77
2017-08-01T18:07:29.247Z,11.77
2017-08-01T18:09:55.347Z,12.00
2017-08-01T18:12:21.439Z,10.67
2017-08-01T18:14:47.511Z,11.33
2017-08-01T18:17:13.600Z,15.33
2017-08-01T18:19:39.979Z,14.00
2017-08-01T18:22:06.070Z,8.30
2017-08-01T18:24:32.123Z,8.57
2017-08-01T18:26:58.955Z,9.90
2017-08-01T18:29:25.019Z,9.93
2017-08-01T18:31:51.107Z,12.07
2017-08-01T18:34:17.939Z,9.47
2017-08-01T18:36:44.763Z,14.60
2017-08-01T18:39:10.830Z,14.37
2017-08-01T18:41:36.915Z,13.23
2017-08-01T18:44:02.982Z,10.30
2017-08-01T18:46:29.067Z,9.47
2017-08-01T18:48:55.134Z,9.97
2017-08-01T18:51:21.503Z,17.47
2017-08-01T18:53:47.562Z,17.27
2017-08-01T18:56:13.670Z,11.37
2017-08-01T18:58:39.745Z,15.30
2017-08-01T19:01:05.814Z,12.40
2017-08-01T19:03:31.885Z,9.10
2017-08-01T19:05:57.999Z,10.27
2017-08-01T19:08:24.092Z,10.00
2017-08-01T19:10:50.220Z,7.33
2017-08-01T19:13:16.293Z,7.13
2017-08-01T19:15:42.386Z,14.00
2017-08-01T19:18:09.208Z,9.43
2017-08-01T19:20:35.299Z,9.00
2017-08-01T19:23:01.454Z,12.93
2017-08-01T19:25:27.551Z,7.70
2017-08-01T19:27:53.638Z,10.00
2017-08-01T19:30:19.746Z,8.17
2017-08-01T19:32:45.823Z,7.73
2017-08-01T19:35:11.899Z,6.20
2017-08-01T19:37:38.008Z,7.70
2017-08-01T19:40:04.087Z,13.77
2017-08-01T19:42:30.196Z,11.67
2017-08-01T19:44:57.050Z,6.20
2017-08-01T19:47:23.201Z,7.13
2017-08-01T19:49:49.300Z,7.63
2017-08-01T19:52:15.462Z,11.23
2017-08-01T19:54:41.536Z,6.27
2017-08-01T19:57:07.716Z,11.30
2017-08-01T19:59:33.802Z,8.50
2017-08-01T20:01:59.898Z,8.83
2017-08-01T20:04:26.099Z,6.20
2017-08-01T20:06:52.232Z,6.87
2017-08-01T20:09:18.327Z,9.00
2017-08-01T20:11:44.684Z,8.13
2017-08-01T20:14:10.755Z,10.13
2017-08-01T20:16:36.904Z,10.27
2017-08-01T20:19:02.967Z,7.17
2017-08-01T20:21:29.044Z,34.20
2017-08-01T20:23:55.126Z,11.03
2017-08-01T20:26:21.187Z,9.80
2017-08-01T20:28:47.287Z,8.43
2017-08-01T20:31:13.355Z,6.10
2017-08-01T20:33:39.428Z,10.30
2017-08-01T20:36:05.748Z,8.23
2017-08-01T20:38:31.830Z,6.63
2017-08-01T20:40:57.894Z,7.70
2017-08-01T20:43:23.971Z,8.67
2017-08-01T20:45:50.087Z,7.07
2017-08-01T20:48:16.173Z,6.70
2017-08-01T20:50:42.231Z,8.93
2017-08-01T20:53:08.324Z,9.80
2017-08-01T20:55:34.394Z,6.80
2017-08-01T20:58:00.475Z,10.60
2017-08-01T21:00:26.572Z,10.87
2017-08-01T21:02:52.647Z,9.90
2017-08-01T21:05:18.731Z,8.00
2017-08-01T21:07:44.838Z,8.00
2017-08-01T21:10:10.906Z,10.03
2017-08-01T21:12:36.958Z,13.20
2017-08-01T21:15:03.026Z,15.20
2017-08-01T21:17:29.151Z,8.40
2017-08-01T21:19:55.251Z,9.83
2017-08-01T21:22:21.319Z,15.30
2017-08-01T21:24:47.427Z,13.23
2017-08-01T21:27:13.508Z,12.33
2017-08-01T21:29:39.772Z,10.60
2017-08-01T21:32:05.882Z,14.27
2017-08-01T21:34:31.975Z,11.30
2017-08-01T21:36:58.131Z,13.73
2017-08-01T21:39:24.203Z,12.13
2017-08-01T21:41:50.378Z,12.40
2017-08-01T21:44:16.466Z,10.33
2017-08-01T21:46:42.644Z,12.50
2017-08-01T21:49:08.709Z,15.27
2017-08-01T21:51:34.835Z,15.00
2017-08-01T21:54:01.029Z,13.90
2017-08-01T21:56:27.093Z,13.20
2017-08-01T21:58:53.175Z,11.07
2017-08-01T22:01:19.289Z,15.70
2017-08-01T22:03:45.346Z,12.27
2017-08-01T22:06:11.447Z,11.47
2017-08-01T22:08:37.511Z,12.27
2017-08-01T22:11:03.619Z,9.03
2017-08-01T22:13:29.702Z,10.77
2017-08-01T22:15:55.783Z,11.87
2017-08-01T22:18:21.961Z,14.83
2017-08-01T22:20:48.412Z,12.83
2017-08-01T22:23:14.530Z,11.33
2017-08-01T22:25:40.609Z,9.57
2017-08-01T22:28:07.419Z,8.60
2017-08-01T22:30:33.503Z,8.73
2017-08-01T22:32:59.572Z,13.90
2017-08-01T22:35:25.640Z,9.90
2017-08-01T22:37:51.707Z,12.83
2017-08-01T22:40:17.926Z,10.57
2017-08-01T22:42:44.019Z,12.50
2017-08-01T22:45:10.153Z,12.33
2017-08-01T22:47:36.214Z,13.07
2017-08-01T22:50:02.285Z,18.03
2017-08-01T22:52:28.380Z,15.43
2017-08-01T22:54:54.519Z,14.43
2017-08-01T22:57:21.390Z,13.10
2017-08-01T22:59:47.454Z,12.23
2017-08-01T23:02:13.546Z,9.83
2017-08-01T23:04:39.597Z,10.53
2017-08-01T23:07:05.690Z,11.07
2017-08-01T23:09:31.774Z,11.47
2017-08-01T23:11:57.851Z,11.50
2017-08-01T23:14:23.935Z,14.40
2017-08-01T23:16:50.001Z,11.00
2017-08-01T23:19:16.115Z,12.50
2017-08-01T23:21:42.232Z,29.23
2017-08-01T23:24:08.294Z,11.90
2017-08-01T23:26:34.510Z,13.17
2017-08-01T23:29:00.798Z,13.00
2017-08-01T23:31:27.022Z,13.10
2017-08-01T23:33:53.069Z,13.70
2017-08-01T23:36:19.150Z,14.10
2017-08-01T23:38:45.296Z,15.33
2017-08-01T23:41:11.398Z,20.53
2017-08-01T23:43:37.454Z,14.00
2017-08-01T23:46:03.539Z,17.30
2017-08-01T23:48:29.597Z,16.93
2017-08-01T23:50:55.770Z,16.60
2017-08-01T23:53:21.820Z,16.40
2017-08-01T23:55:47.915Z,12.77
2017-08-01T23:58:13.975Z,12.17
